sensor_id;sensor_type;location;lat;lon;timestamp;temperature;humidity
11836;DHT22;5977;51.972;7.640;2023-04-06T00:01:54;17.30;59.00
11836;DHT22;5977;51.972;7.640;2023-04-06T00:04:22;17.20;59.10
11836;DHT22;5977;51.972;7.640;2023-04-06T00:06:50;17.30;59.40
11836;DHT22;5977;51.972;7.640;2023-04-06T00:09:18;17.30;59.10
11836;DHT22;5977;51.972;7.640;2023-04-06T00:11:47;17.30;59.40
11836;DHT22;5977;51.972;7.640;2023-04-06T00:14:15;17.50;59.00
11836;DHT22;5977;51.972;7.640;2023-04-06T00:16:44;17.40;59.20
11836;DHT22;5977;51.972;7.640;2023-04-06T00:19:11;17.40;59.50
11836;DHT22;5977;51.972;7.640;2023-04-06T00:21:39;17.30;58.90
11836;DHT22;5977;51.972;7.640;2023-04-06T00:24:07;17.20;59.20
11836;DHT22;5977;51.972;7.640;2023-04-06T00:26:35;16.90;59.10
11836;DHT22;5977;51.972;7.640;2023-04-06T00:29:05;17.00;59.70
11836;DHT22;5977;51.972;7.640;2023-04-06T00:31:33;17.00;59.30
11836;DHT22;5977;51.972;7.640;2023-04-06T00:34:01;17.30;59.20
11836;DHT22;5977;51.972;7.640;2023-04-06T00:36:30;17.20;59.30
11836;DHT22;5977;51.972;7.640;2023-04-06T00:38:58;17.30;58.80
11836;DHT22;5977;51.972;7.640;2023-04-06T00:41:26;17.20;58.50
11836;DHT22;5977;51.972;7.640;2023-04-06T00:43:53;16.90;58.70
11836;DHT22;5977;51.972;7.640;2023-04-06T00:46:23;17.10;59.20
11836;DHT22;5977;51.972;7.640;2023-04-06T00:48:51;16.90;58.50
11836;DHT22;5977;51.972;7.640;2023-04-06T00:51:19;17.10;58.50
11836;DHT22;5977;51.972;7.640;2023-04-06T00:53:46;17.00;58.80
11836;DHT22;5977;51.972;7.640;2023-04-06T00:56:14;17.10;58.40
11836;DHT22;5977;51.972;7.640;2023-04-06T00:58:49;17.10;59.10
11836;DHT22;5977;51.972;7.640;2023-04-06T01:01:17;17.10;58.70
11836;DHT22;5977;51.972;7.640;2023-04-06T01:03:48;16.90;59.30
11836;DHT22;5977;51.972;7.640;2023-04-06T01:06:18;17.30;58.80
11836;DHT22;5977;51.972;7.640;2023-04-06T01:08:55;17.30;58.60
11836;DHT22;5977;51.972;7.640;2023-04-06T01:11:25;17.20;58.50
11836;DHT22;5977;51.972;7.640;2023-04-06T01:13:53;17.20;58.90
11836;DHT22;5977;51.972;7.640;2023-04-06T01:16:36;17.00;58.20
11836;DHT22;5977;51.972;7.640;2023-04-06T01:19:18;17.10;59.00
11836;DHT22;5977;51.972;7.640;2023-04-06T01:21:50;17.30;58.80
11836;DHT22;5977;51.972;7.640;2023-04-06T01:24:41;17.40;58.60
11836;DHT22;5977;51.972;7.640;2023-04-06T01:27:21;17.50;58.50
11836;DHT22;5977;51.972;7.640;2023-04-06T01:30:18;17.20;57.60
11836;DHT22;5977;51.972;7.640;2023-04-06T01:32:59;17.30;58.10
11836;DHT22;5977;51.972;7.640;2023-04-06T01:35:47;17.20;58.80
11836;DHT22;5977;51.972;7.640;2023-04-06T01:38:18;17.10;58.60
11836;DHT22;5977;51.972;7.640;2023-04-06T01:40:49;16.90;58.80
11836;DHT22;5977;51.972;7.640;2023-04-06T01:43:19;17.00;58.80
11836;DHT22;5977;51.972;7.640;2023-04-06T01:46:01;17.10;59.00
11836;DHT22;5977;51.972;7.640;2023-04-06T01:48:33;17.30;58.60
11836;DHT22;5977;51.972;7.640;2023-04-06T01:51:09;17.30;58.60
11836;DHT22;5977;51.972;7.640;2023-04-06T01:53:45;17.10;58.60
11836;DHT22;5977;51.972;7.640;2023-04-06T01:56:16;17.20;58.60
11836;DHT22;5977;51.972;7.640;2023-04-06T01:58:53;17.10;58.50
11836;DHT22;5977;51.972;7.640;2023-04-06T02:01:23;17.40;59.10
11836;DHT22;5977;51.972;7.640;2023-04-06T02:03:55;17.20;58.40
11836;DHT22;5977;51.972;7.640;2023-04-06T02:06:23;17.10;58.50
11836;DHT22;5977;51.972;7.640;2023-04-06T02:08:51;16.90;58.80
11836;DHT22;5977;51.972;7.640;2023-04-06T02:11:20;17.10;59.10
11836;DHT22;5977;51.972;7.640;2023-04-06T02:13:52;16.80;59.00
11836;DHT22;5977;51.972;7.640;2023-04-06T02:16:23;17.00;58.80
11836;DHT22;5977;51.972;7.640;2023-04-06T02:18:51;16.90;58.90
11836;DHT22;5977;51.972;7.640;2023-04-06T02:21:18;16.90;59.50
11836;DHT22;5977;51.972;7.640;2023-04-06T02:23:47;17.10;59.20
11836;DHT22;5977;51.972;7.640;2023-04-06T02:26:17;17.00;59.30
11836;DHT22;5977;51.972;7.640;2023-04-06T02:28:46;17.00;59.10
11836;DHT22;5977;51.972;7.640;2023-04-06T02:31:14;17.00;59.70
11836;DHT22;5977;51.972;7.640;2023-04-06T02:33:44;17.10;59.50
11836;DHT22;5977;51.972;7.640;2023-04-06T02:36:13;17.30;59.70
11836;DHT22;5977;51.972;7.640;2023-04-06T02:38:41;16.90;58.30
11836;DHT22;5977;51.972;7.640;2023-04-06T02:41:10;17.00;59.70
11836;DHT22;5977;51.972;7.640;2023-04-06T02:43:39;17.10;59.90
11836;DHT22;5977;51.972;7.640;2023-04-06T02:46:23;17.00;59.90
11836;DHT22;5977;51.972;7.640;2023-04-06T02:48:51;17.20;59.90
11836;DHT22;5977;51.972;7.640;2023-04-06T02:51:19;17.30;59.60
11836;DHT22;5977;51.972;7.640;2023-04-06T02:53:53;17.00;59.00
11836;DHT22;5977;51.972;7.640;2023-04-06T02:56:21;16.90;59.60
11836;DHT22;5977;51.972;7.640;2023-04-06T02:58:50;17.20;59.70
11836;DHT22;5977;51.972;7.640;2023-04-06T03:01:22;17.00;59.00
11836;DHT22;5977;51.972;7.640;2023-04-06T03:03:56;17.30;59.20
11836;DHT22;5977;51.972;7.640;2023-04-06T03:06:26;17.10;59.20
11836;DHT22;5977;51.972;7.640;2023-04-06T03:08:58;17.80;59.90
11836;DHT22;5977;51.972;7.640;2023-04-06T03:11:26;17.70;58.90
11836;DHT22;5977;51.972;7.640;2023-04-06T03:13:54;17.50;58.60
11836;DHT22;5977;51.972;7.640;2023-04-06T03:16:23;17.80;59.40
11836;DHT22;5977;51.972;7.640;2023-04-06T03:18:52;18.00;58.90
11836;DHT22;5977;51.972;7.640;2023-04-06T03:21:20;18.20;58.70
11836;DHT22;5977;51.972;7.640;2023-04-06T03:23:51;18.10;57.60
11836;DHT22;5977;51.972;7.640;2023-04-06T03:26:19;18.10;58.10
11836;DHT22;5977;51.972;7.640;2023-04-06T03:28:50;18.20;58.50
11836;DHT22;5977;51.972;7.640;2023-04-06T03:31:22;18.20;58.20
11836;DHT22;5977;51.972;7.640;2023-04-06T03:34:06;18.20;58.00
11836;DHT22;5977;51.972;7.640;2023-04-06T03:36:35;18.20;58.20
11836;DHT22;5977;51.972;7.640;2023-04-06T03:39:04;18.40;58.00
11836;DHT22;5977;51.972;7.640;2023-04-06T03:41:36;18.50;58.00
11836;DHT22;5977;51.972;7.640;2023-04-06T03:44:19;18.50;57.90
11836;DHT22;5977;51.972;7.640;2023-04-06T03:46:48;18.50;57.80
11836;DHT22;5977;51.972;7.640;2023-04-06T03:49:17;18.60;57.80
11836;DHT22;5977;51.972;7.640;2023-04-06T03:51:48;18.60;57.70
11836;DHT22;5977;51.972;7.640;2023-04-06T03:54:16;18.50;57.80
11836;DHT22;5977;51.972;7.640;2023-04-06T03:56:44;18.50;57.80
11836;DHT22;5977;51.972;7.640;2023-04-06T03:59:12;18.50;57.90
11836;DHT22;5977;51.972;7.640;2023-04-06T04:01:40;18.50;58.00
11836;DHT22;5977;51.972;7.640;2023-04-06T04:04:10;18.40;57.60
11836;DHT22;5977;51.972;7.640;2023-04-06T04:06:37;18.40;58.10
11836;DHT22;5977;51.972;7.640;2023-04-06T04:09:07;18.30;58.10
11836;DHT22;5977;51.972;7.640;2023-04-06T04:11:36;18.40;58.00
11836;DHT22;5977;51.972;7.640;2023-04-06T04:14:04;18.40;58.10
11836;DHT22;5977;51.972;7.640;2023-04-06T04:16:32;18.40;57.50
11836;DHT22;5977;51.972;7.640;2023-04-06T04:19:00;18.20;58.20
11836;DHT22;5977;51.972;7.640;2023-04-06T04:21:30;18.30;58.20
11836;DHT22;5977;51.972;7.640;2023-04-06T04:24:03;18.40;58.50
11836;DHT22;5977;51.972;7.640;2023-04-06T04:26:34;18.30;59.20
11836;DHT22;5977;51.972;7.640;2023-04-06T04:29:02;18.20;58.40
11836;DHT22;5977;51.972;7.640;2023-04-06T04:31:29;18.20;58.20
11836;DHT22;5977;51.972;7.640;2023-04-06T04:34:01;18.20;58.00
11836;DHT22;5977;51.972;7.640;2023-04-06T04:36:34;18.10;58.20
11836;DHT22;5977;51.972;7.640;2023-04-06T04:39:05;18.10;58.30
11836;DHT22;5977;51.972;7.640;2023-04-06T04:41:37;18.10;58.70
11836;DHT22;5977;51.972;7.640;2023-04-06T04:44:08;18.30;58.50
11836;DHT22;5977;51.972;7.640;2023-04-06T04:46:36;18.20;58.40
11836;DHT22;5977;51.972;7.640;2023-04-06T04:49:05;18.10;58.00
11836;DHT22;5977;51.972;7.640;2023-04-06T04:51:35;18.10;57.80
11836;DHT22;5977;51.972;7.640;2023-04-06T04:54:18;18.20;57.90
11836;DHT22;5977;51.972;7.640;2023-04-06T04:56:46;18.30;58.00
11836;DHT22;5977;51.972;7.640;2023-04-06T04:59:23;18.30;57.80
11836;DHT22;5977;51.972;7.640;2023-04-06T05:01:57;18.30;57.90
11836;DHT22;5977;51.972;7.640;2023-04-06T05:04:35;18.20;57.90
11836;DHT22;5977;51.972;7.640;2023-04-06T05:07:07;18.20;57.90
11836;DHT22;5977;51.972;7.640;2023-04-06T05:09:37;18.20;57.70
11836;DHT22;5977;51.972;7.640;2023-04-06T05:12:06;18.20;57.80
11836;DHT22;5977;51.972;7.640;2023-04-06T05:14:41;18.20;57.50
11836;DHT22;5977;51.972;7.640;2023-04-06T05:17:13;18.30;58.00
11836;DHT22;5977;51.972;7.640;2023-04-06T05:19:41;18.30;57.70
11836;DHT22;5977;51.972;7.640;2023-04-06T05:22:12;18.30;57.80
11836;DHT22;5977;51.972;7.640;2023-04-06T05:24:44;18.20;57.80
11836;DHT22;5977;51.972;7.640;2023-04-06T05:27:12;18.10;57.90
11836;DHT22;5977;51.972;7.640;2023-04-06T05:29:40;18.20;58.00
11836;DHT22;5977;51.972;7.640;2023-04-06T05:32:08;18.20;57.90
11836;DHT22;5977;51.972;7.640;2023-04-06T05:34:37;18.00;57.80
11836;DHT22;5977;51.972;7.640;2023-04-06T05:37:05;17.20;56.70
11836;DHT22;5977;51.972;7.640;2023-04-06T05:39:36;16.50;56.50
11836;DHT22;5977;51.972;7.640;2023-04-06T05:42:04;16.10;56.60
11836;DHT22;5977;51.972;7.640;2023-04-06T05:44:53;16.10;56.50
11836;DHT22;5977;51.972;7.640;2023-04-06T05:47:21;16.10;56.20
11836;DHT22;5977;51.972;7.640;2023-04-06T05:49:56;16.00;56.00
11836;DHT22;5977;51.972;7.640;2023-04-06T05:52:31;16.00;55.80
11836;DHT22;5977;51.972;7.640;2023-04-06T05:55:00;15.80;55.30
11836;DHT22;5977;51.972;7.640;2023-04-06T05:57:30;15.80;55.40
11836;DHT22;5977;51.972;7.640;2023-04-06T05:59:58;16.00;55.50
11836;DHT22;5977;51.972;7.640;2023-04-06T06:02:38;15.80;55.10
11836;DHT22;5977;51.972;7.640;2023-04-06T06:05:09;15.80;55.70
11836;DHT22;5977;51.972;7.640;2023-04-06T06:07:39;15.80;55.00
11836;DHT22;5977;51.972;7.640;2023-04-06T06:10:09;15.90;54.60
11836;DHT22;5977;51.972;7.640;2023-04-06T06:12:38;15.80;54.10
11836;DHT22;5977;51.972;7.640;2023-04-06T06:15:07;15.90;54.40
11836;DHT22;5977;51.972;7.640;2023-04-06T06:17:39;15.80;54.30
11836;DHT22;5977;51.972;7.640;2023-04-06T06:20:08;15.90;53.60
11836;DHT22;5977;51.972;7.640;2023-04-06T06:22:36;16.30;53.30
11836;DHT22;5977;51.972;7.640;2023-04-06T06:25:06;16.70;52.20
11836;DHT22;5977;51.972;7.640;2023-04-06T06:27:35;17.10;51.10
11836;DHT22;5977;51.972;7.640;2023-04-06T06:30:05;17.30;50.30
11836;DHT22;5977;51.972;7.640;2023-04-06T06:32:34;17.40;49.60
11836;DHT22;5977;51.972;7.640;2023-04-06T06:35:03;17.50;49.30
11836;DHT22;5977;51.972;7.640;2023-04-06T06:37:32;17.50;49.30
11836;DHT22;5977;51.972;7.640;2023-04-06T06:40:01;17.20;48.40
11836;DHT22;5977;51.972;7.640;2023-04-06T06:42:30;17.10;49.10
11836;DHT22;5977;51.972;7.640;2023-04-06T06:45:35;17.10;48.80
11836;DHT22;5977;51.972;7.640;2023-04-06T06:48:03;17.20;49.10
11836;DHT22;5977;51.972;7.640;2023-04-06T06:50:31;17.40;49.20
11836;DHT22;5977;51.972;7.640;2023-04-06T06:52:59;17.80;49.00
11836;DHT22;5977;51.972;7.640;2023-04-06T06:55:27;18.00;48.20
11836;DHT22;5977;51.972;7.640;2023-04-06T06:57:55;18.10;47.30
11836;DHT22;5977;51.972;7.640;2023-04-06T07:00:23;18.20;47.30
11836;DHT22;5977;51.972;7.640;2023-04-06T07:02:53;18.20;46.80
11836;DHT22;5977;51.972;7.640;2023-04-06T07:05:22;18.20;46.70
11836;DHT22;5977;51.972;7.640;2023-04-06T07:07:56;18.30;46.70
11836;DHT22;5977;51.972;7.640;2023-04-06T07:10:26;18.30;46.70
11836;DHT22;5977;51.972;7.640;2023-04-06T07:12:54;18.30;46.50
11836;DHT22;5977;51.972;7.640;2023-04-06T07:15:22;18.10;47.30
11836;DHT22;5977;51.972;7.640;2023-04-06T07:17:50;18.00;49.00
11836;DHT22;5977;51.972;7.640;2023-04-06T07:20:20;17.90;49.10
11836;DHT22;5977;51.972;7.640;2023-04-06T07:22:48;17.60;48.80
11836;DHT22;5977;51.972;7.640;2023-04-06T07:25:16;17.80;49.50
11836;DHT22;5977;51.972;7.640;2023-04-06T07:27:44;17.90;49.40
11836;DHT22;5977;51.972;7.640;2023-04-06T07:30:12;18.00;49.30
11836;DHT22;5977;51.972;7.640;2023-04-06T07:32:40;18.10;49.10
11836;DHT22;5977;51.972;7.640;2023-04-06T07:35:08;18.20;49.50
11836;DHT22;5977;51.972;7.640;2023-04-06T07:37:37;18.40;48.90
11836;DHT22;5977;51.972;7.640;2023-04-06T07:40:07;18.50;48.20
11836;DHT22;5977;51.972;7.640;2023-04-06T07:42:36;18.50;48.10
11836;DHT22;5977;51.972;7.640;2023-04-06T07:45:06;18.60;48.00
11836;DHT22;5977;51.972;7.640;2023-04-06T07:47:34;18.60;48.10
11836;DHT22;5977;51.972;7.640;2023-04-06T07:50:03;18.80;47.90
11836;DHT22;5977;51.972;7.640;2023-04-06T07:52:32;18.80;47.10
11836;DHT22;5977;51.972;7.640;2023-04-06T07:55:04;18.80;47.10
11836;DHT22;5977;51.972;7.640;2023-04-06T07:57:32;18.80;47.80
11836;DHT22;5977;51.972;7.640;2023-04-06T08:00:01;18.80;48.20
11836;DHT22;5977;51.972;7.640;2023-04-06T08:02:37;18.60;47.50
11836;DHT22;5977;51.972;7.640;2023-04-06T08:05:06;18.60;47.50
11836;DHT22;5977;51.972;7.640;2023-04-06T08:07:34;18.70;47.30
11836;DHT22;5977;51.972;7.640;2023-04-06T08:10:05;18.80;46.90
11836;DHT22;5977;51.972;7.640;2023-04-06T08:12:33;18.90;47.20
11836;DHT22;5977;51.972;7.640;2023-04-06T08:15:01;19.00;46.70
11836;DHT22;5977;51.972;7.640;2023-04-06T08:17:31;19.10;46.90
11836;DHT22;5977;51.972;7.640;2023-04-06T08:20:00;19.10;45.20
11836;DHT22;5977;51.972;7.640;2023-04-06T08:22:29;19.10;46.10
11836;DHT22;5977;51.972;7.640;2023-04-06T08:24:57;19.00;45.40
11836;DHT22;5977;51.972;7.640;2023-04-06T08:27:27;19.10;45.10
11836;DHT22;5977;51.972;7.640;2023-04-06T08:29:54;19.20;44.90
11836;DHT22;5977;51.972;7.640;2023-04-06T08:32:22;19.40;45.60
11836;DHT22;5977;51.972;7.640;2023-04-06T08:34:53;19.50;44.10
11836;DHT22;5977;51.972;7.640;2023-04-06T08:37:22;19.40;44.10
11836;DHT22;5977;51.972;7.640;2023-04-06T08:39:49;19.50;44.40
11836;DHT22;5977;51.972;7.640;2023-04-06T08:42:20;19.50;45.70
11836;DHT22;5977;51.972;7.640;2023-04-06T08:44:50;19.70;46.10
11836;DHT22;5977;51.972;7.640;2023-04-06T08:47:19;19.90;45.60
11836;DHT22;5977;51.972;7.640;2023-04-06T08:49:51;19.80;44.70
11836;DHT22;5977;51.972;7.640;2023-04-06T08:52:19;20.00;45.10
11836;DHT22;5977;51.972;7.640;2023-04-06T08:54:47;20.10;45.30
11836;DHT22;5977;51.972;7.640;2023-04-06T08:57:16;20.20;45.70
11836;DHT22;5977;51.972;7.640;2023-04-06T08:59:45;20.10;43.30
11836;DHT22;5977;51.972;7.640;2023-04-06T09:02:17;20.20;45.40
11836;DHT22;5977;51.972;7.640;2023-04-06T09:04:48;20.10;44.10
11836;DHT22;5977;51.972;7.640;2023-04-06T09:07:17;20.10;44.10
11836;DHT22;5977;51.972;7.640;2023-04-06T09:09:44;20.00;43.60
11836;DHT22;5977;51.972;7.640;2023-04-06T09:12:25;20.10;42.80
11836;DHT22;5977;51.972;7.640;2023-04-06T09:14:53;20.00;43.80
11836;DHT22;5977;51.972;7.640;2023-04-06T09:17:25;20.00;43.60
11836;DHT22;5977;51.972;7.640;2023-04-06T09:19:53;20.10;43.20
11836;DHT22;5977;51.972;7.640;2023-04-06T09:22:22;20.00;43.10
11836;DHT22;5977;51.972;7.640;2023-04-06T09:24:52;20.00;44.30
11836;DHT22;5977;51.972;7.640;2023-04-06T09:27:30;20.00;42.70
11836;DHT22;5977;51.972;7.640;2023-04-06T09:30:05;19.90;42.50
11836;DHT22;5977;51.972;7.640;2023-04-06T09:32:44;20.00;43.90
11836;DHT22;5977;51.972;7.640;2023-04-06T09:35:13;19.80;43.20
11836;DHT22;5977;51.972;7.640;2023-04-06T09:37:41;19.90;43.10
11836;DHT22;5977;51.972;7.640;2023-04-06T09:40:10;19.90;43.10
11836;DHT22;5977;51.972;7.640;2023-04-06T09:42:47;20.00;43.90
11836;DHT22;5977;51.972;7.640;2023-04-06T09:45:22;20.20;43.30
11836;DHT22;5977;51.972;7.640;2023-04-06T09:47:54;20.10;43.70
11836;DHT22;5977;51.972;7.640;2023-04-06T09:50:24;20.10;43.30
11836;DHT22;5977;51.972;7.640;2023-04-06T09:52:54;20.00;43.30
11836;DHT22;5977;51.972;7.640;2023-04-06T09:55:27;20.20;43.60
11836;DHT22;5977;51.972;7.640;2023-04-06T09:58:02;20.00;42.90
11836;DHT22;5977;51.972;7.640;2023-04-06T10:00:34;20.10;44.40
11836;DHT22;5977;51.972;7.640;2023-04-06T10:03:14;20.30;43.30
11836;DHT22;5977;51.972;7.640;2023-04-06T10:05:50;20.10;42.90
11836;DHT22;5977;51.972;7.640;2023-04-06T10:08:21;20.10;43.50
11836;DHT22;5977;51.972;7.640;2023-04-06T10:10:58;19.90;43.60
11836;DHT22;5977;51.972;7.640;2023-04-06T10:13:27;20.20;44.10
11836;DHT22;5977;51.972;7.640;2023-04-06T10:15:55;19.90;43.10
11836;DHT22;5977;51.972;7.640;2023-04-06T10:18:25;19.70;40.70
11836;DHT22;5977;51.972;7.640;2023-04-06T10:20:56;19.50;42.70
11836;DHT22;5977;51.972;7.640;2023-04-06T10:23:31;19.50;45.70
11836;DHT22;5977;51.972;7.640;2023-04-06T10:26:01;19.70;48.50
11836;DHT22;5977;51.972;7.640;2023-04-06T10:28:31;19.60;45.20
11836;DHT22;5977;51.972;7.640;2023-04-06T10:31:01;19.40;39.40
11836;DHT22;5977;51.972;7.640;2023-04-06T10:33:31;18.80;39.50
11836;DHT22;5977;51.972;7.640;2023-04-06T10:36:09;18.90;39.70
11836;DHT22;5977;51.972;7.640;2023-04-06T10:38:41;18.90;39.40
11836;DHT22;5977;51.972;7.640;2023-04-06T10:41:11;18.90;38.60
11836;DHT22;5977;51.972;7.640;2023-04-06T10:43:40;18.50;39.50
11836;DHT22;5977;51.972;7.640;2023-04-06T10:46:11;18.70;39.20
11836;DHT22;5977;51.972;7.640;2023-04-06T10:48:42;19.00;38.30
11836;DHT22;5977;51.972;7.640;2023-04-06T10:51:11;18.90;37.80
11836;DHT22;5977;51.972;7.640;2023-04-06T10:53:41;19.00;38.80
11836;DHT22;5977;51.972;7.640;2023-04-06T10:56:11;19.00;38.20
11836;DHT22;5977;51.972;7.640;2023-04-06T10:58:44;18.90;40.20
11836;DHT22;5977;51.972;7.640;2023-04-06T11:01:14;19.20;43.40
11836;DHT22;5977;51.972;7.640;2023-04-06T11:03:44;19.40;45.00
11836;DHT22;5977;51.972;7.640;2023-04-06T11:06:18;19.20;44.90
11836;DHT22;5977;51.972;7.640;2023-04-06T11:08:47;19.30;46.00
11836;DHT22;5977;51.972;7.640;2023-04-06T11:11:17;19.50;47.50
11836;DHT22;5977;51.972;7.640;2023-04-06T11:13:49;19.60;47.60
11836;DHT22;5977;51.972;7.640;2023-04-06T11:16:19;19.50;44.90
11836;DHT22;5977;51.972;7.640;2023-04-06T11:18:50;19.50;47.90
11836;DHT22;5977;51.972;7.640;2023-04-06T11:21:19;19.60;47.40
11836;DHT22;5977;51.972;7.640;2023-04-06T11:23:47;19.90;50.40
11836;DHT22;5977;51.972;7.640;2023-04-06T11:26:15;20.00;50.60
11836;DHT22;5977;51.972;7.640;2023-04-06T11:28:43;20.10;50.70
11836;DHT22;5977;51.972;7.640;2023-04-06T11:31:11;20.20;49.20
11836;DHT22;5977;51.972;7.640;2023-04-06T11:33:39;20.20;49.10
11836;DHT22;5977;51.972;7.640;2023-04-06T11:36:08;20.00;49.30
11836;DHT22;5977;51.972;7.640;2023-04-06T11:38:39;20.10;49.00
11836;DHT22;5977;51.972;7.640;2023-04-06T11:41:07;20.20;50.30
11836;DHT22;5977;51.972;7.640;2023-04-06T11:43:34;20.20;48.90
11836;DHT22;5977;51.972;7.640;2023-04-06T11:46:03;20.30;49.50
11836;DHT22;5977;51.972;7.640;2023-04-06T11:48:43;20.20;48.60
11836;DHT22;5977;51.972;7.640;2023-04-06T11:51:21;20.10;48.10
11836;DHT22;5977;51.972;7.640;2023-04-06T11:53:49;20.00;48.10
11836;DHT22;5977;51.972;7.640;2023-04-06T11:56:23;19.80;45.10
11836;DHT22;5977;51.972;7.640;2023-04-06T11:58:52;19.60;46.10
11836;DHT22;5977;51.972;7.640;2023-04-06T12:01:20;19.60;47.40
11836;DHT22;5977;51.972;7.640;2023-04-06T12:03:48;19.70;48.40
11836;DHT22;5977;51.972;7.640;2023-04-06T12:06:18;19.80;48.30
11836;DHT22;5977;51.972;7.640;2023-04-06T12:08:46;20.00;48.90
11836;DHT22;5977;51.972;7.640;2023-04-06T12:11:14;19.90;47.10
11836;DHT22;5977;51.972;7.640;2023-04-06T12:13:42;19.90;47.20
11836;DHT22;5977;51.972;7.640;2023-04-06T12:16:10;20.00;48.50
11836;DHT22;5977;51.972;7.640;2023-04-06T12:18:38;19.90;47.00
11836;DHT22;5977;51.972;7.640;2023-04-06T12:21:06;20.10;50.10
11836;DHT22;5977;51.972;7.640;2023-04-06T12:23:35;20.20;47.50
11836;DHT22;5977;51.972;7.640;2023-04-06T12:26:03;19.90;46.30
11836;DHT22;5977;51.972;7.640;2023-04-06T12:28:31;19.80;47.90
11836;DHT22;5977;51.972;7.640;2023-04-06T12:30:58;19.90;49.20
11836;DHT22;5977;51.972;7.640;2023-04-06T12:33:26;20.00;48.20
11836;DHT22;5977;51.972;7.640;2023-04-06T12:35:54;19.80;45.10
11836;DHT22;5977;51.972;7.640;2023-04-06T12:38:22;20.00;47.70
11836;DHT22;5977;51.972;7.640;2023-04-06T12:40:52;20.00;47.50
11836;DHT22;5977;51.972;7.640;2023-04-06T12:43:19;20.20;48.20
11836;DHT22;5977;51.972;7.640;2023-04-06T12:45:47;20.20;47.90
11836;DHT22;5977;51.972;7.640;2023-04-06T12:48:15;19.90;45.10
11836;DHT22;5977;51.972;7.640;2023-04-06T12:50:43;19.80;46.50
11836;DHT22;5977;51.972;7.640;2023-04-06T12:53:11;19.60;45.30
11836;DHT22;5977;51.972;7.640;2023-04-06T12:55:38;19.40;45.10
11836;DHT22;5977;51.972;7.640;2023-04-06T12:58:08;19.60;46.20
11836;DHT22;5977;51.972;7.640;2023-04-06T13:00:35;19.80;48.50
11836;DHT22;5977;51.972;7.640;2023-04-06T13:03:03;19.80;46.50
11836;DHT22;5977;51.972;7.640;2023-04-06T13:05:31;19.70;45.50
11836;DHT22;5977;51.972;7.640;2023-04-06T13:07:59;19.70;45.90
11836;DHT22;5977;51.972;7.640;2023-04-06T13:10:27;19.60;45.80
11836;DHT22;5977;51.972;7.640;2023-04-06T13:12:55;19.70;47.00
11836;DHT22;5977;51.972;7.640;2023-04-06T13:15:24;19.80;48.40
11836;DHT22;5977;51.972;7.640;2023-04-06T13:17:52;19.80;46.70
11836;DHT22;5977;51.972;7.640;2023-04-06T13:20:22;19.70;45.80
11836;DHT22;5977;51.972;7.640;2023-04-06T13:22:51;19.80;46.60
11836;DHT22;5977;51.972;7.640;2023-04-06T13:25:18;19.80;46.80
11836;DHT22;5977;51.972;7.640;2023-04-06T13:27:46;19.80;46.90
11836;DHT22;5977;51.972;7.640;2023-04-06T13:30:15;19.80;47.50
11836;DHT22;5977;51.972;7.640;2023-04-06T13:32:45;19.90;47.40
11836;DHT22;5977;51.972;7.640;2023-04-06T13:35:13;19.90;46.80
11836;DHT22;5977;51.972;7.640;2023-04-06T13:37:41;19.60;47.00
11836;DHT22;5977;51.972;7.640;2023-04-06T13:40:10;19.60;47.90
11836;DHT22;5977;51.972;7.640;2023-04-06T13:42:38;19.70;48.30
11836;DHT22;5977;51.972;7.640;2023-04-06T13:45:08;19.80;49.30
11836;DHT22;5977;51.972;7.640;2023-04-06T13:47:36;20.10;50.30
11836;DHT22;5977;51.972;7.640;2023-04-06T13:50:06;20.10;49.00
11836;DHT22;5977;51.972;7.640;2023-04-06T13:52:35;20.00;47.80
11836;DHT22;5977;51.972;7.640;2023-04-06T13:55:04;20.10;48.70
11836;DHT22;5977;51.972;7.640;2023-04-06T13:57:32;20.00;48.90
11836;DHT22;5977;51.972;7.640;2023-04-06T14:00:00;19.80;47.80
11836;DHT22;5977;51.972;7.640;2023-04-06T14:02:33;19.70;47.40
11836;DHT22;5977;51.972;7.640;2023-04-06T14:05:01;19.60;47.40
11836;DHT22;5977;51.972;7.640;2023-04-06T14:07:31;19.60;47.80
11836;DHT22;5977;51.972;7.640;2023-04-06T14:09:59;19.60;46.20
11836;DHT22;5977;51.972;7.640;2023-04-06T14:12:27;19.30;45.90
11836;DHT22;5977;51.972;7.640;2023-04-06T14:14:55;19.40;46.70
11836;DHT22;5977;51.972;7.640;2023-04-06T14:17:23;19.70;48.30
11836;DHT22;5977;51.972;7.640;2023-04-06T14:19:51;19.70;46.10
11836;DHT22;5977;51.972;7.640;2023-04-06T14:22:19;19.50;45.70
11836;DHT22;5977;51.972;7.640;2023-04-06T14:24:48;19.40;45.60
11836;DHT22;5977;51.972;7.640;2023-04-06T14:27:16;19.50;46.90
11836;DHT22;5977;51.972;7.640;2023-04-06T14:29:44;19.60;47.50
11836;DHT22;5977;51.972;7.640;2023-04-06T14:32:12;19.50;46.30
11836;DHT22;5977;51.972;7.640;2023-04-06T14:34:39;19.50;45.50
11836;DHT22;5977;51.972;7.640;2023-04-06T14:37:07;19.50;46.10
11836;DHT22;5977;51.972;7.640;2023-04-06T14:39:35;19.60;46.70
11836;DHT22;5977;51.972;7.640;2023-04-06T14:42:05;19.40;44.70
11836;DHT22;5977;51.972;7.640;2023-04-06T14:44:33;19.40;45.90
11836;DHT22;5977;51.972;7.640;2023-04-06T14:47:03;19.40;46.00
11836;DHT22;5977;51.972;7.640;2023-04-06T14:49:32;19.30;47.00
11836;DHT22;5977;51.972;7.640;2023-04-06T14:52:00;19.20;46.80
11836;DHT22;5977;51.972;7.640;2023-04-06T14:54:28;19.30;46.00
11836;DHT22;5977;51.972;7.640;2023-04-06T14:56:56;19.20;48.00
11836;DHT22;5977;51.972;7.640;2023-04-06T14:59:25;19.30;47.20
11836;DHT22;5977;51.972;7.640;2023-04-06T15:01:58;19.30;47.40
11836;DHT22;5977;51.972;7.640;2023-04-06T15:04:26;19.40;47.70
11836;DHT22;5977;51.972;7.640;2023-04-06T15:06:54;19.40;47.20
11836;DHT22;5977;51.972;7.640;2023-04-06T15:09:22;19.40;47.00
11836;DHT22;5977;51.972;7.640;2023-04-06T15:11:50;19.40;46.20
11836;DHT22;5977;51.972;7.640;2023-04-06T15:14:18;19.40;47.10
11836;DHT22;5977;51.972;7.640;2023-04-06T15:16:47;19.30;47.00
11836;DHT22;5977;51.972;7.640;2023-04-06T15:19:15;19.20;46.50
11836;DHT22;5977;51.972;7.640;2023-04-06T15:21:43;19.10;46.70
11836;DHT22;5977;51.972;7.640;2023-04-06T15:24:11;19.20;48.30
11836;DHT22;5977;51.972;7.640;2023-04-06T15:26:39;19.30;48.30
11836;DHT22;5977;51.972;7.640;2023-04-06T15:29:06;19.30;48.00
11836;DHT22;5977;51.972;7.640;2023-04-06T15:31:34;19.20;47.00
11836;DHT22;5977;51.972;7.640;2023-04-06T15:34:06;19.00;47.10
11836;DHT22;5977;51.972;7.640;2023-04-06T15:36:35;18.90;48.40
11836;DHT22;5977;51.972;7.640;2023-04-06T15:39:04;19.10;48.70
11836;DHT22;5977;51.972;7.640;2023-04-06T15:41:35;19.00;47.80
11836;DHT22;5977;51.972;7.640;2023-04-06T15:44:03;19.10;49.20
11836;DHT22;5977;51.972;7.640;2023-04-06T15:46:31;19.30;49.30
11836;DHT22;5977;51.972;7.640;2023-04-06T15:48:59;19.30;48.50
11836;DHT22;5977;51.972;7.640;2023-04-06T15:51:28;19.20;48.50
11836;DHT22;5977;51.972;7.640;2023-04-06T15:53:57;19.30;48.90
11836;DHT22;5977;51.972;7.640;2023-04-06T15:56:25;19.00;47.60
11836;DHT22;5977;51.972;7.640;2023-04-06T15:58:53;19.00;48.10
11836;DHT22;5977;51.972;7.640;2023-04-06T16:01:20;19.10;48.70
11836;DHT22;5977;51.972;7.640;2023-04-06T16:03:48;18.90;48.30